Bullhead City, Arizona
Current Conditions -  °F | °C
As of 4:15 AM on Friday 24 Oct 2014 (Local Time) from KIFP Reporting Station
Clear Clear  
Wind Chill: 66°   Ceiling: Unl
Heat Index: 66°   Visibility: 10mi
Dew Point: 39°   Wind: 0mph
Humidity: 37%   Direction: NA
Pressure: 29.99"   Gusts: NA
Location:  35.13°N, 114.57°W
Report Text: KIFP 241115Z AUTO 00000KT 10SM CLR 19/04 A2999 RMK AO2 PWINO
Loading
Personal Weather Stations






























Interactive Weather Map New forecast layout! Learn more

10-Day Weather Forecast

Advertisements
Track Severe Weather on mobile